Time;durP1;ratioP1;P1;durP2;ratioP2;P2;SDS_P1;SDS_P2;PMS_P1;PMS_P2;Temp;Humidity;BMP_temperature;BMP_pressure;BME280_temperature;BME280_humidity;BME280_pressure;Samples;Min_cycle;Max_cycle;Signal;HPM_P1;HPM_P2
2023/03/06 00:00:39;;;;;;;12.38;5.82;;;;;;;3.25;100.00;100734.88;4890280;29;20053;-84
2023/03/06 00:03:04;;;;;;;11.63;5.97;;;;;;;3.19;100.00;100730.66;4886404;29;20077;-86
2023/03/06 00:05:30;;;;;;;12.82;5.70;;;;;;;3.14;100.00;100725.31;4878760;29;20040;-84
2023/03/06 00:07:55;;;;;;;9.75;5.80;;;;;;;3.15;100.00;100724.16;4893053;29;20031;-85
2023/03/06 00:10:24;;;;;;;11.18;6.75;;;;;;;3.09;100.00;100725.50;4876168;29;20073;-86
2023/03/06 00:12:56;;;;;;;14.30;6.53;;;;;;;2.87;100.00;100713.53;4878704;29;20123;-84
2023/03/06 00:15:23;;;;;;;13.15;5.40;;;;;;;3.32;100.00;100723.28;4888878;29;20032;-84
2023/03/06 00:17:48;;;;;;;13.88;7.72;;;;;;;3.43;100.00;100708.72;4900219;29;20120;-85
2023/03/06 00:20:15;;;;;;;9.70;6.20;;;;;;;3.28;100.00;100712.06;4892426;29;20187;-84
2023/03/06 00:22:41;;;;;;;14.20;7.30;;;;;;;3.25;100.00;100709.97;4894754;29;20068;-84
2023/03/06 00:25:10;;;;;;;16.10;6.60;;;;;;;3.15;100.00;100702.03;4875958;29;20028;-85
2023/03/06 00:27:36;;;;;;;12.50;6.47;;;;;;;3.11;100.00;100703.84;4892580;29;20028;-84
2023/03/06 00:30:01;;;;;;;12.75;6.18;;;;;;;3.04;100.00;100707.13;4890915;29;20112;-85
2023/03/06 00:32:27;;;;;;;9.00;5.82;;;;;;;3.14;100.00;100700.41;4894885;29;20032;-85
2023/03/06 00:34:54;;;;;;;9.85;5.80;;;;;;;3.02;100.00;100707.47;4889814;29;20485;-84
2023/03/06 00:37:21;;;;;;;13.05;6.32;;;;;;;2.94;100.00;100700.00;4874622;29;20036;-84
2023/03/06 00:39:48;;;;;;;11.45;5.55;;;;;;;2.77;100.00;100694.53;4882272;29;20154;-85
2023/03/06 00:42:14;;;;;;;11.85;6.03;;;;;;;2.79;100.00;100690.28;4875555;29;20029;-84
2023/03/06 00:44:39;;;;;;;11.80;6.18;;;;;;;2.69;100.00;100689.84;4879196;29;20072;-85
2023/03/06 00:47:05;;;;;;;9.82;6.18;;;;;;;2.77;100.00;100691.78;4890767;29;20033;-84
2023/03/06 00:49:30;;;;;;;12.68;6.57;;;;;;;2.84;100.00;100684.56;4865387;29;20386;-84
2023/03/06 00:51:55;;;;;;;9.18;5.72;;;;;;;2.65;100.00;100681.38;4881335;29;20032;-84
2023/03/06 00:54:21;;;;;;;9.63;6.70;;;;;;;2.75;100.00;100671.94;4882760;29;20036;-84
2023/03/06 00:56:46;;;;;;;9.80;5.88;;;;;;;2.61;100.00;100684.03;4879612;29;20033;-84
2023/03/06 00:59:11;;;;;;;12.18;8.13;;;;;;;2.98;100.00;100689.09;4893710;29;20452;-84
2023/03/06 01:01:37;;;;;;;12.13;6.53;;;;;;;2.87;100.00;100679.53;4877037;29;20029;-84
2023/03/06 01:04:03;;;;;;;16.25;6.28;;;;;;;2.57;100.00;100671.16;4878364;29;20047;-85
2023/03/06 01:06:28;;;;;;;13.07;7.13;;;;;;;2.69;100.00;100664.97;4877018;29;20042;-85
2023/03/06 01:08:53;;;;;;;9.88;6.20;;;;;;;2.76;100.00;100668.84;4876215;29;20036;-84
2023/03/06 01:11:19;;;;;;;12.07;6.68;;;;;;;2.68;100.00;100666.09;4891902;29;20512;-85
2023/03/06 01:13:45;;;;;;;10.95;5.60;;;;;;;2.85;100.00;100649.47;4871549;29;20043;-85
2023/03/06 01:16:13;;;;;;;12.52;5.80;;;;;;;2.75;100.00;100655.34;4888873;29;20449;-85
2023/03/06 01:18:39;;;;;;;11.05;5.70;;;;;;;3.02;100.00;100654.91;4890793;29;20076;-85
2023/03/06 01:21:05;;;;;;;11.32;6.40;;;;;;;2.61;100.00;100647.25;4890963;29;20021;-85
2023/03/06 01:23:31;;;;;;;11.10;5.93;;;;;;;2.76;100.00;100646.75;4890507;29;20028;-84
2023/03/06 01:25:57;;;;;;;8.77;5.25;;;;;;;2.75;100.00;100644.31;4873440;29;20450;-84
2023/03/06 01:28:22;;;;;;;13.52;6.63;;;;;;;2.53;100.00;100648.94;4871274;29;20083;-84
2023/03/06 01:30:48;;;;;;;10.63;5.50;;;;;;;2.72;100.00;100651.31;4870880;29;20429;-84
2023/03/06 01:33:14;;;;;;;10.27;5.22;;;;;;;2.53;100.00;100643.41;4872446;29;20037;-84
2023/03/06 01:35:39;;;;;;;10.40;5.88;;;;;;;2.76;100.00;100645.91;4869982;29;20063;-84
2023/03/06 01:38:05;;;;;;;10.43;5.47;;;;;;;2.72;100.00;100642.19;4886315;29;20047;-85
2023/03/06 01:40:36;;;;;;;13.88;6.93;;;;;;;2.43;100.00;100644.56;4871677;29;20110;-85
2023/03/06 01:43:27;;;;;;;13.38;6.95;;;;;;;2.39;100.00;100638.06;4873774;29;20038;-85
2023/03/06 01:46:30;;;;;;;10.73;5.85;;;;;;;2.42;100.00;100637.41;4872207;29;20460;-85
2023/03/06 01:49:03;;;;;;;9.23;5.47;;;;;;;2.39;100.00;100634.50;4882204;29;20036;-85
2023/03/06 01:51:35;;;;;;;12.50;6.85;;;;;;;2.36;100.00;100626.84;4890551;29;20036;-84
2023/03/06 01:54:09;;;;;;;12.53;6.67;;;;;;;2.49;100.00;100630.56;4890115;29;20037;-84
2023/03/06 01:56:34;;;;;;;11.93;6.00;;;;;;;2.49;100.00;100633.31;4890772;29;20342;-84
2023/03/06 01:59:00;;;;;;;14.68;7.35;;;;;;;2.51;100.00;100612.53;4892589;29;20469;-84
2023/03/06 02:01:26;;;;;;;15.57;7.15;;;;;;;2.67;100.00;100620.28;4873613;29;20033;-85
2023/03/06 02:03:53;;;;;;;9.07;6.72;;;;;;;2.74;100.00;100612.25;4891735;29;20180;-85
2023/03/06 02:06:20;;;;;;;11.65;6.78;;;;;;;2.42;100.00;100609.78;4891972;29;20029;-85
2023/03/06 02:08:48;;;;;;;14.75;7.05;;;;;;;2.42;100.00;100600.69;4890865;29;20492;-85
2023/03/06 02:11:16;;;;;;;13.93;9.02;;;;;;;2.41;100.00;100601.81;4887148;29;20032;-84
2023/03/06 02:13:44;;;;;;;12.07;8.25;;;;;;;2.46;100.00;100593.34;4874255;29;20390;-84
2023/03/06 02:16:10;;;;;;;15.05;7.18;;;;;;;2.34;100.00;100590.47;4890395;29;20024;-84
2023/03/06 02:18:38;;;;;;;14.43;8.48;;;;;;;2.34;100.00;100588.53;4874744;29;20587;-84
2023/03/06 02:21:07;;;;;;;13.80;7.45;;;;;;;2.52;100.00;100586.50;4891713;29;20021;-84
2023/03/06 02:23:44;;;;;;;13.35;7.40;;;;;;;2.74;100.00;100579.94;4893334;29;20024;-85
2023/03/06 02:26:11;;;;;;;14.70;8.30;;;;;;;2.52;100.00;100586.50;4876189;29;20031;-84
2023/03/06 02:28:36;;;;;;;17.30;8.25;;;;;;;2.60;100.00;100579.34;4880398;29;20397;-84
2023/03/06 02:31:02;;;;;;;11.85;7.15;;;;;;;2.43;100.00;100577.44;4889296;29;20033;-84
2023/03/06 02:33:28;;;;;;;12.57;8.00;;;;;;;2.22;100.00;100583.69;4893892;29;20587;-85
2023/03/06 02:36:03;;;;;;;12.00;8.55;;;;;;;2.37;100.00;100562.19;4887098;29;20663;-84
2023/03/06 02:38:48;;;;;;;16.42;7.10;;;;;;;2.43;100.00;100561.69;4874032;29;20067;-85
2023/03/06 02:41:15;;;;;;;13.90;7.47;;;;;;;2.51;100.00;100562.78;4891720;29;20053;-84
2023/03/06 02:43:43;;;;;;;14.45;7.10;;;;;;;2.21;100.00;100564.66;4895248;29;20363;-85
2023/03/06 02:46:09;;;;;;;14.95;7.30;;;;;;;2.41;100.00;100568.69;4897873;29;20024;-85
2023/03/06 02:48:34;;;;;;;16.48;7.85;;;;;;;2.35;100.00;100561.72;4880363;29;20560;-84
2023/03/06 02:51:00;;;;;;;15.68;8.50;;;;;;;2.37;100.00;100562.19;4877213;29;20079;-85
2023/03/06 02:53:25;;;;;;;11.65;6.50;;;;;;;2.48;100.00;100549.63;4873467;29;20040;-85
2023/03/06 02:55:51;;;;;;;12.35;7.15;;;;;;;2.44;100.00;100540.38;4892585;29;20534;-85
2023/03/06 02:58:20;;;;;;;14.55;7.72;;;;;;;2.24;100.00;100541.94;4879539;29;20036;-85
2023/03/06 03:00:46;;;;;;;12.15;7.15;;;;;;;2.45;100.00;100539.25;4885228;29;20075;-85
2023/03/06 03:03:12;;;;;;;14.07;7.55;;;;;;;2.42;100.00;100526.09;4889225;29;20477;-85
2023/03/06 03:05:37;;;;;;;14.27;7.57;;;;;;;2.55;100.00;100536.13;4869593;29;20032;-85
2023/03/06 03:08:03;;;;;;;12.65;6.93;;;;;;;2.37;100.00;100534.56;4873967;29;20131;-85
2023/03/06 03:10:28;;;;;;;11.90;7.63;;;;;;;2.56;100.00;100523.91;4874755;29;20043;-86
2023/03/06 03:13:16;;;;;;;14.82;7.97;;;;;;;2.33;100.00;100523.38;4870855;29;20033;-84
2023/03/06 03:15:40;;;;;;;13.45;6.93;;;;;;;2.21;100.00;100528.75;4890031;29;20481;-85
2023/03/06 03:18:06;;;;;;;14.73;8.77;;;;;;;2.52;100.00;100524.91;4888602;29;20101;-84
2023/03/06 03:20:31;;;;;;;12.23;7.28;;;;;;;2.58;100.00;100521.63;4887371;29;20486;-85
2023/03/06 03:22:56;;;;;;;13.48;6.93;;;;;;;2.54;100.00;100506.06;4886959;29;20402;-85
2023/03/06 03:25:24;;;;;;;13.63;7.65;;;;;;;2.72;100.00;100517.81;4872603;29;20028;-85
2023/03/06 03:27:49;;;;;;;11.77;7.57;;;;;;;2.35;100.00;100512.00;4884383;29;21711;-85
2023/03/06 03:30:15;;;;;;;13.65;7.38;;;;;;;2.67;100.00;100510.53;4871696;29;20493;-85
2023/03/06 03:32:40;;;;;;;9.65;7.15;;;;;;;2.42;100.00;100506.75;4872033;29;20051;-85
2023/03/06 03:35:08;;;;;;;9.60;6.55;;;;;;;2.48;100.00;100505.44;4870670;29;20029;-85
2023/03/06 03:37:34;;;;;;;13.25;6.90;;;;;;;2.65;100.00;100502.56;4872309;29;21266;-84
2023/03/06 03:39:59;;;;;;;12.50;7.25;;;;;;;2.58;100.00;100482.94;4885325;29;20024;-85
2023/03/06 03:42:25;;;;;;;10.25;5.88;;;;;;;2.77;100.00;100490.00;4888300;29;20092;-85
2023/03/06 03:44:50;;;;;;;9.68;6.68;;;;;;;2.70;100.00;100487.78;4870199;29;20470;-85
2023/03/06 03:47:15;;;;;;;16.05;6.78;;;;;;;2.46;100.00;100482.03;4887352;29;20108;-85
2023/03/06 03:49:41;;;;;;;9.73;6.80;;;;;;;2.48;100.00;100490.81;4869521;29;20028;-85
2023/03/06 03:52:06;;;;;;;15.23;6.88;;;;;;;2.66;100.00;100486.81;4871941;29;20032;-84
2023/03/06 03:54:32;;;;;;;9.18;6.15;;;;;;;2.59;100.00;100479.06;4872195;29;20123;-85
2023/03/06 03:56:57;;;;;;;12.15;6.07;;;;;;;2.50;100.00;100483.81;4874800;29;20374;-84
2023/03/06 03:59:23;;;;;;;10.57;6.38;;;;;;;2.59;100.00;100481.81;4864594;29;20055;-84
2023/03/06 04:01:48;;;;;;;10.60;6.18;;;;;;;2.68;100.00;100487.28;4876573;29;20051;-83
2023/03/06 04:04:14;;;;;;;12.52;6.43;;;;;;;2.84;100.00;100487.50;4883695;29;20051;-83
2023/03/06 04:06:39;;;;;;;10.82;6.53;;;;;;;2.84;100.00;100482.78;4892269;29;20071;-84
2023/03/06 04:09:05;;;;;;;9.15;5.65;;;;;;;2.44;100.00;100479.59;4880554;29;20397;-84
2023/03/06 04:11:30;;;;;;;10.80;6.65;;;;;;;2.47;100.00;100490.00;4876197;29;20036;-83
2023/03/06 04:13:56;;;;;;;9.52;5.60;;;;;;;2.50;100.00;100472.75;4878873;29;20032;-84
2023/03/06 04:16:22;;;;;;;10.48;6.80;;;;;;;2.32;100.00;100483.09;4893871;29;20127;-84
2023/03/06 04:18:47;;;;;;;13.85;6.47;;;;;;;2.57;100.00;100484.09;4899905;29;20029;-84
2023/03/06 04:21:13;;;;;;;10.77;6.18;;;;;;;2.27;100.00;100479.69;4890780;29;20033;-83
2023/03/06 04:23:38;;;;;;;14.30;6.53;;;;;;;2.60;100.00;100477.91;4878288;29;20036;-83
2023/03/06 04:26:04;;;;;;;11.13;5.75;;;;;;;2.57;100.00;100478.59;4876623;29;20087;-84
2023/03/06 04:28:29;;;;;;;10.05;5.68;;;;;;;2.73;100.00;100480.75;4878054;29;20032;-83
2023/03/06 04:30:55;;;;;;;7.63;5.70;;;;;;;2.75;100.00;100478.47;4891348;29;20028;-84
2023/03/06 04:33:20;;;;;;;12.27;6.40;;;;;;;2.52;100.00;100476.00;4874854;29;20075;-84
2023/03/06 04:35:46;;;;;;;7.53;5.97;;;;;;;2.67;100.00;100469.06;4875409;29;20040;-84
2023/03/06 04:38:11;;;;;;;11.32;6.43;;;;;;;2.69;100.00;100474.28;4874198;29;20084;-84
2023/03/06 04:40:37;;;;;;;11.55;6.40;;;;;;;2.72;100.00;100473.59;4875821;29;20051;-85
2023/03/06 04:43:03;;;;;;;13.52;6.38;;;;;;;2.49;100.00;100471.16;4891575;29;20040;-84
2023/03/06 04:45:30;;;;;;;16.10;6.88;;;;;;;2.47;100.00;100462.38;4876657;29;20107;-84
2023/03/06 04:47:55;;;;;;;10.13;7.35;;;;;;;2.53;100.00;100455.53;4897786;29;20036;-84
2023/03/06 04:50:22;;;;;;;10.10;6.95;;;;;;;2.71;100.00;100461.75;4890158;29;20036;-85
2023/03/06 04:52:48;;;;;;;10.13;6.93;;;;;;;2.86;100.00;100454.81;4885672;29;20519;-85
2023/03/06 04:55:15;;;;;;;10.02;6.93;;;;;;;2.89;100.00;100456.91;4894718;29;20033;-84
2023/03/06 04:57:43;;;;;;;8.25;6.65;;;;;;;2.98;100.00;100459.63;4876685;29;20036;-84
2023/03/06 05:00:13;;;;;;;11.82;6.88;;;;;;;3.05;100.00;100452.38;4871159;29;20060;-84
2023/03/06 05:02:41;;;;;;;10.77;6.57;;;;;;;3.12;100.00;100440.81;4891499;29;20067;-84
2023/03/06 05:05:07;;;;;;;8.82;5.75;;;;;;;3.02;100.00;100447.53;4893000;29;20066;-85
2023/03/06 05:07:32;;;;;;;8.27;6.65;;;;;;;2.85;100.00;100439.38;4891736;29;20072;-84
2023/03/06 05:09:59;;;;;;;9.27;5.57;;;;;;;2.60;100.00;100432.88;4881065;29;20048;-84
2023/03/06 05:12:24;;;;;;;9.02;5.82;;;;;;;2.77;100.00;100434.72;4874942;29;20036;-84
2023/03/06 05:14:50;;;;;;;8.65;5.57;;;;;;;2.68;100.00;100439.47;4877047;29;20063;-85
2023/03/06 05:17:15;;;;;;;7.28;6.38;;;;;;;2.87;100.00;100426.03;4897031;29;20234;-85
2023/03/06 05:19:40;;;;;;;9.05;5.85;;;;;;;2.68;100.00;100422.91;4876678;29;20036;-85
2023/03/06 05:22:06;;;;;;;8.13;5.53;;;;;;;2.96;100.00;100418.47;4869815;29;20080;-85
2023/03/06 05:24:31;;;;;;;10.05;5.32;;;;;;;2.78;100.00;100422.50;4887925;29;20048;-85
2023/03/06 05:26:56;;;;;;;8.07;4.75;;;;;;;3.02;100.00;100421.84;4890282;29;20358;-85
2023/03/06 05:29:22;;;;;;;6.32;4.13;;;;;;;3.12;100.00;100424.22;4875566;29;20556;-85
2023/03/06 05:31:47;;;;;;;7.45;4.18;;;;;;;3.13;100.00;100425.00;4878414;29;20056;-84
2023/03/06 05:34:14;;;;;;;7.55;4.88;;;;;;;2.74;100.00;100421.56;4881554;29;20162;-84
2023/03/06 05:36:40;;;;;;;10.35;4.32;;;;;;;2.94;100.00;100428.25;4888543;29;20949;-84
2023/03/06 05:39:05;;;;;;;6.93;4.90;;;;;;;2.87;100.00;100433.50;4874898;29;20056;-85
2023/03/06 05:41:31;;;;;;;6.57;4.07;;;;;;;3.11;100.00;100430.06;4877425;29;20060;-84
2023/03/06 05:43:57;;;;;;;8.43;4.85;;;;;;;3.18;100.00;100442.22;4888794;29;20457;-85
2023/03/06 05:46:23;;;;;;;7.60;4.05;;;;;;;3.23;100.00;100438.44;4886796;29;20039;-84
2023/03/06 05:48:51;;;;;;;7.28;4.13;;;;;;;3.17;100.00;100439.78;4890183;29;20024;-84
2023/03/06 05:51:17;;;;;;;8.73;4.35;;;;;;;3.07;100.00;100434.66;4876994;29;20059;-83
2023/03/06 05:53:42;;;;;;;7.22;3.42;;;;;;;3.17;100.00;100434.25;4875098;29;20056;-83
2023/03/06 05:56:08;;;;;;;7.57;4.25;;;;;;;3.22;100.00;100436.78;4887977;29;20032;-83
2023/03/06 05:58:34;;;;;;;4.43;2.95;;;;;;;3.14;100.00;100435.75;4875708;29;20033;-83
2023/03/06 06:01:00;;;;;;;5.30;3.22;;;;;;;3.23;100.00;100443.97;4882726;29;20506;-83
2023/03/06 06:03:25;;;;;;;4.65;3.20;;;;;;;3.22;100.00;100436.78;4883043;29;20098;-83
2023/03/06 06:05:51;;;;;;;6.55;3.33;;;;;;;3.20;100.00;100444.63;4879291;29;20575;-83
2023/03/06 06:08:17;;;;;;;7.20;2.85;;;;;;;3.17;100.00;100445.31;4871914;29;20063;-83
2023/03/06 06:10:42;;;;;;;3.50;2.38;;;;;;;3.16;100.00;100450.03;4895610;29;20032;-83
2023/03/06 06:13:07;;;;;;;2.30;1.77;;;;;;;3.18;100.00;100441.38;4876850;29;20056;-84
2023/03/06 06:15:33;;;;;;;3.28;1.65;;;;;;;3.19;100.00;100443.03;4874473;29;20052;-84
2023/03/06 06:17:58;;;;;;;1.40;1.30;;;;;;;3.17;100.00;100442.53;4879927;29;20096;-84
2023/03/06 06:20:24;;;;;;;2.50;1.90;;;;;;;3.12;100.00;100443.56;4879907;29;20036;-84
2023/03/06 06:22:50;;;;;;;2.53;2.00;;;;;;;3.14;100.00;100445.97;4883528;29;20063;-84
2023/03/06 06:25:16;;;;;;;2.60;1.80;;;;;;;3.12;100.00;100449.09;4874743;29;20028;-84
2023/03/06 06:27:41;;;;;;;1.70;1.40;;;;;;;3.11;100.00;100452.19;4875666;29;20069;-84
2023/03/06 06:30:09;;;;;;;1.80;1.65;;;;;;;3.12;100.00;100451.03;4894707;29;20044;-84
2023/03/06 06:32:35;;;;;;;2.88;1.90;;;;;;;3.10;100.00;100453.31;4897319;29;20036;-84
2023/03/06 06:35:00;;;;;;;3.67;1.70;;;;;;;3.06;100.00;100455.97;4877621;29;20028;-84
2023/03/06 06:37:26;;;;;;;1.67;1.52;;;;;;;3.07;100.00;100456.78;4891075;29;20043;-85
2023/03/06 06:39:51;;;;;;;1.60;1.50;;;;;;;3.08;100.00;100455.63;4877775;29;20132;-84
2023/03/06 06:42:16;;;;;;;4.10;1.95;;;;;;;3.04;100.00;100464.59;4873185;29;20033;-85
2023/03/06 06:44:42;;;;;;;2.58;1.67;;;;;;;3.02;100.00;100460.56;4876473;29;20418;-85
2023/03/06 06:47:07;;;;;;;2.38;1.60;;;;;;;2.98;100.00;100449.34;4874898;29;20044;-85
2023/03/06 06:49:33;;;;;;;2.40;1.90;;;;;;;3.05;100.00;100459.88;4894012;29;20047;-85
2023/03/06 06:51:58;;;;;;;2.70;1.63;;;;;;;3.04;100.00;100453.53;4883004;29;20035;-84
2023/03/06 06:54:24;;;;;;;2.53;1.73;;;;;;;3.03;100.00;100468.50;4899683;29;20065;-84
2023/03/06 06:56:49;;;;;;;2.08;1.67;;;;;;;3.03;100.00;100465.72;4877736;29;20123;-84
2023/03/06 06:59:15;;;;;;;3.60;2.03;;;;;;;2.99;100.00;100456.53;4888708;29;20036;-85
2023/03/06 07:01:40;;;;;;;5.45;2.58;;;;;;;2.99;100.00;100461.22;4871527;29;20393;-85
2023/03/06 07:04:06;;;;;;;2.70;2.10;;;;;;;2.98;100.00;100463.19;4893913;29;20036;-85
2023/03/06 07:06:31;;;;;;;3.15;2.20;;;;;;;2.96;100.00;100462.72;4893191;29;20037;-85
2023/03/06 07:08:56;;;;;;;2.63;2.13;;;;;;;3.32;100.00;100461.28;4884948;29;20040;-81
2023/03/06 07:11:22;;;;;;;5.40;2.15;;;;;;;4.61;100.00;100465.66;4875205;29;20120;-85
2023/03/06 07:13:47;;;;;;;4.05;2.60;;;;;;;3.89;100.00;100464.47;4892011;29;20044;-86
2023/03/06 07:16:16;;;;;;;2.47;1.92;;;;;;;3.42;100.00;100469.16;4879502;29;20176;-86
2023/03/06 07:18:42;;;;;;;3.83;2.55;;;;;;;3.18;100.00;100467.09;4878068;29;20092;-86
2023/03/06 07:21:08;;;;;;;3.60;2.85;;;;;;;3.12;100.00;100474.00;4893819;29;20497;-86
2023/03/06 07:23:34;;;;;;;3.45;2.63;;;;;;;3.05;100.00;100470.94;4887746;29;20029;-87
2023/03/06 07:25:59;;;;;;;2.72;2.17;;;;;;;3.40;100.00;100477.00;4893471;29;20634;-83
2023/03/06 07:28:25;;;;;;;3.60;2.28;;;;;;;3.13;100.00;100491.38;4890191;29;20160;-84
2023/03/06 07:30:50;;;;;;;3.08;2.35;;;;;;;2.81;100.00;100485.44;4892870;29;20040;-83
2023/03/06 07:33:15;;;;;;;2.58;2.13;;;;;;;2.92;100.00;100492.16;4886261;29;20040;-84
2023/03/06 07:35:41;;;;;;;3.42;2.53;;;;;;;2.77;100.00;100492.75;4877191;29;20031;-84
2023/03/06 07:38:07;;;;;;;4.13;2.20;;;;;;;2.96;100.00;100495.88;4878337;29;20092;-84
2023/03/06 07:40:32;;;;;;;4.72;2.53;;;;;;;3.31;100.00;100494.81;4876369;29;20535;-85
2023/03/06 07:43:00;;;;;;;3.28;2.38;;;;;;;3.23;100.00;100499.28;4875299;29;20016;-84
2023/03/06 07:45:25;;;;;;;2.92;2.38;;;;;;;3.16;100.00;100499.00;4888048;29;20537;-85
2023/03/06 07:47:51;;;;;;;5.55;2.65;;;;;;;3.06;100.00;100500.22;4895186;29;20137;-84
2023/03/06 07:50:18;;;;;;;2.75;2.20;;;;;;;3.14;100.00;100502.13;4891219;29;20029;-85
2023/03/06 07:52:43;;;;;;;5.00;2.70;;;;;;;3.09;100.00;100509.78;4876287;29;20512;-85
2023/03/06 07:55:09;;;;;;;3.25;1.88;;;;;;;2.94;100.00;100503.69;4891378;29;20021;-84
2023/03/06 07:57:36;;;;;;;3.55;1.60;;;;;;;3.00;100.00;100513.44;4878871;29;20071;-84
2023/03/06 08:00:11;;;;;;;5.68;2.22;;;;;;;3.59;100.00;100509.69;4872386;29;20045;-85
2023/03/06 08:02:37;;;;;;;5.13;2.80;;;;;;;3.22;100.00;100512.28;4876189;29;20165;-83
2023/03/06 08:05:03;;;;;;;3.42;2.40;;;;;;;3.04;100.00;100514.38;4876620;29;20485;-83
2023/03/06 08:07:29;;;;;;;6.78;2.78;;;;;;;2.97;100.00;100522.41;4864724;29;20043;-83
2023/03/06 08:09:54;;;;;;;5.18;2.65;;;;;;;3.02;100.00;100505.59;4876318;29;20496;-83
2023/03/06 08:12:20;;;;;;;3.47;2.38;;;;;;;2.76;100.00;100522.38;4876481;29;20033;-82
2023/03/06 08:14:45;;;;;;;5.47;2.97;;;;;;;2.96;100.00;100517.19;4873137;29;20063;-82
2023/03/06 08:17:11;;;;;;;5.30;2.25;;;;;;;3.13;100.00;100516.28;4860723;29;20025;-83
2023/03/06 08:19:36;;;;;;;3.50;2.30;;;;;;;3.09;100.00;100510.59;4870664;29;20139;-84
2023/03/06 08:22:05;;;;;;;2.97;2.10;;;;;;;3.17;100.00;100511.69;4872093;29;20033;-84
2023/03/06 08:24:32;;;;;;;2.97;1.98;;;;;;;3.24;100.00;100523.00;4872044;29;20676;-83
2023/03/06 08:26:59;;;;;;;5.60;1.70;;;;;;;3.22;100.00;100508.72;4858475;29;20029;-83
2023/03/06 08:29:25;;;;;;;3.45;1.92;;;;;;;3.19;100.00;100509.41;4860481;29;20096;-83
2023/03/06 08:31:50;;;;;;;4.05;2.17;;;;;;;3.19;100.00;100512.16;4876616;29;20029;-82
2023/03/06 08:34:19;;;;;;;3.47;1.52;;;;;;;3.03;100.00;100507.22;4872272;29;20029;-82
2023/03/06 08:36:45;;;;;;;5.18;2.58;;;;;;;3.18;100.00;100502.22;4857361;29;20053;-82
2023/03/06 08:39:11;;;;;;;3.65;2.00;;;;;;;3.08;100.00;100503.47;4878203;29;20599;-82
2023/03/06 08:41:37;;;;;;;5.63;2.35;;;;;;;3.07;100.00;100509.31;4879245;29;20044;-81
2023/03/06 08:44:03;;;;;;;3.53;1.77;;;;;;;3.17;100.00;100512.50;4861262;29;20107;-83
2023/03/06 08:46:30;;;;;;;3.22;1.85;;;;;;;3.17;100.00;100509.72;4870904;29;20123;-82
2023/03/06 08:48:56;;;;;;;2.85;1.60;;;;;;;3.34;100.00;100500.47;4861819;29;20025;-83
2023/03/06 08:51:23;;;;;;;5.22;2.22;;;;;;;3.42;100.00;100502.38;4861529;29;20176;-83
2023/03/06 08:53:50;;;;;;;3.75;1.90;;;;;;;3.33;100.00;100506.34;4864462;29;20021;-83
2023/03/06 08:56:21;;;;;;;2.88;1.70;;;;;;;3.59;100.00;100508.91;4859154;29;20021;-83
2023/03/06 08:58:47;;;;;;;3.03;1.70;;;;;;;3.42;100.00;100507.91;4871833;29;20033;-83
2023/03/06 09:01:18;;;;;;;4.80;2.13;;;;;;;3.44;100.00;100500.06;4859606;29;20046;-82
2023/03/06 09:03:44;;;;;;;4.28;2.45;;;;;;;3.61;100.00;100492.75;4860906;29;20040;-82
2023/03/06 09:06:09;;;;;;;5.03;3.13;;;;;;;3.72;100.00;100499.50;4887813;29;20096;-82
2023/03/06 09:08:35;;;;;;;4.60;2.63;;;;;;;3.77;100.00;100504.78;4859657;29;20037;-83
2023/03/06 09:11:00;;;;;;;9.40;4.43;;;;;;;3.38;100.00;100501.41;4851573;29;20028;-82
2023/03/06 09:13:26;;;;;;;5.13;2.75;;;;;;;3.54;100.00;100509.09;4858307;29;20080;-84
2023/03/06 09:15:51;;;;;;;12.10;4.10;;;;;;;3.57;100.00;100509.22;4859348;29;20021;-83
2023/03/06 09:18:17;;;;;;;6.18;2.90;;;;;;;3.51;100.00;100509.78;4860703;29;20127;-82
2023/03/06 09:20:42;;;;;;;11.68;3.47;;;;;;;3.72;100.00;100510.56;4860335;29;20040;-82
2023/03/06 09:23:08;;;;;;;6.38;2.30;;;;;;;3.57;100.00;100513.97;4877314;29;20032;-82
2023/03/06 09:25:34;;;;;;;8.10;2.65;;;;;;;3.63;100.00;100507.88;4876966;29;20149;-82
2023/03/06 09:27:59;;;;;;;3.97;2.58;;;;;;;3.57;100.00;100514.78;4874002;29;20117;-83
2023/03/06 09:30:27;;;;;;;4.50;2.65;;;;;;;3.72;100.00;100516.09;4874099;29;20084;-83
2023/03/06 09:32:53;;;;;;;6.65;3.42;;;;;;;3.75;100.00;100515.41;4856828;29;20033;-83
2023/03/06 09:35:18;;;;;;;3.70;2.10;;;;;;;3.65;100.00;100521.38;4866942;29;20120;-83
2023/03/06 09:37:44;;;;;;;3.05;1.95;;;;;;;3.47;100.00;100513.22;4875847;29;20068;-84
2023/03/06 09:40:32;;;;;;;4.07;2.22;;;;;;;3.30;100.00;100520.88;4846396;29;20067;-83
2023/03/06 09:42:58;;;;;;;8.88;2.83;;;;;;;3.35;100.00;100518.72;4859799;29;20359;-83
2023/03/06 09:45:23;;;;;;;3.15;2.25;;;;;;;3.59;100.00;100509.69;4857750;29;20048;-83
2023/03/06 09:48:11;;;;;;;2.60;1.75;;;;;;;3.39;100.00;100514.09;4869790;29;20101;-84
2023/03/06 09:51:00;;;;;;;6.00;2.20;;;;;;;3.44;100.00;100508.38;4865282;29;20029;-83
2023/03/06 09:53:59;;;;;;;3.42;1.67;;;;;;;3.70;100.00;100507.31;4871165;29;20044;-82
2023/03/06 09:56:30;;;;;;;4.85;2.35;;;;;;;3.72;100.00;100507.00;4865945;29;20033;-83
2023/03/06 09:59:09;;;;;;;16.33;8.85;;;;;;;3.79;100.00;100516.34;4856258;29;20080;-83
2023/03/06 10:01:38;;;;;;;4.47;2.83;;;;;;;3.97;100.00;100510.66;4876644;29;20040;-84
2023/03/06 10:04:28;;;;;;;5.13;2.25;;;;;;;4.00;100.00;100509.94;4891628;29;20119;-82
2023/03/06 10:06:58;;;;;;;5.03;2.38;;;;;;;3.87;100.00;100515.44;4892858;29;20040;-83
2023/03/06 10:09:39;;;;;;;2.50;1.80;;;;;;;3.82;100.00;100510.13;4876719;29;20552;-83
2023/03/06 10:12:31;;;;;;;2.67;1.77;;;;;;;3.66;100.00;100506.38;4892003;29;20104;-83
2023/03/06 10:15:15;;;;;;;6.18;2.47;;;;;;;3.88;100.00;100507.97;4895698;29;20477;-83
2023/03/06 10:17:42;;;;;;;4.47;2.10;;;;;;;3.80;100.00;100506.91;4891003;29;20127;-82
2023/03/06 10:20:46;;;;;;;3.67;1.73;;;;;;;3.94;100.00;100505.78;4877200;29;20554;-83
2023/03/06 10:23:23;;;;;;;3.47;2.00;;;;;;;3.87;100.00;100507.13;4884568;29;20401;-83
2023/03/06 10:26:00;;;;;;;3.63;2.00;;;;;;;4.12;100.00;100509.97;4892086;29;20032;-82
2023/03/06 10:28:41;;;;;;;5.30;2.22;;;;;;;3.89;100.00;100509.56;4888659;29;20354;-83
2023/03/06 10:31:19;;;;;;;2.72;1.70;;;;;;;4.10;100.00;100508.72;4875416;29;20035;-83
2023/03/06 10:33:47;;;;;;;2.15;1.25;;;;;;;4.16;100.00;100510.91;4880991;29;20029;-83
2023/03/06 10:36:17;;;;;;;3.00;1.77;;;;;;;4.31;100.00;100514.19;4880589;29;20047;-83
2023/03/06 10:38:47;;;;;;;7.90;2.45;;;;;;;4.16;100.00;100502.59;4887220;29;20037;-83
2023/03/06 10:41:12;;;;;;;6.65;1.90;;;;;;;4.19;100.00;100507.44;4872732;29;20036;-82
2023/03/06 10:43:43;;;;;;;3.15;1.55;;;;;;;4.13;97.72;100505.25;4888916;29;20037;-83
2023/03/06 10:46:11;;;;;;;2.13;1.73;;;;;;;4.26;100.00;100504.94;4889151;29;20104;-83
2023/03/06 10:48:39;;;;;;;3.53;1.73;;;;;;;4.34;100.00;100503.19;4898564;29;20041;-83
2023/03/06 10:51:09;;;;;;;3.40;1.65;;;;;;;4.14;98.08;100504.91;4895965;29;20368;-84
2023/03/06 10:53:35;;;;;;;6.00;2.75;;;;;;;4.32;99.01;100511.03;4896169;29;20498;-83
2023/03/06 10:56:01;;;;;;;3.55;1.45;;;;;;;4.32;100.00;100505.50;4891347;29;20031;-83
2023/03/06 10:58:29;;;;;;;2.45;1.30;;;;;;;4.25;99.37;100503.28;4882619;29;20032;-83
2023/03/06 11:01:06;;;;;;;5.32;1.52;;;;;;;4.34;100.00;100507.94;4889170;29;20040;-83
2023/03/06 11:03:33;;;;;;;1.48;1.38;;;;;;;4.37;100.00;100516.38;4885116;29;20099;-83
2023/03/06 11:06:14;;;;;;;3.60;1.65;;;;;;;4.34;100.00;100502.38;4894355;29;20016;-84
2023/03/06 11:08:43;;;;;;;3.17;1.52;;;;;;;4.13;100.00;100502.47;4877645;29;20036;-83
2023/03/06 11:11:14;;;;;;;3.80;1.60;;;;;;;4.41;100.00;100508.19;4893054;29;20168;-84
2023/03/06 11:13:42;;;;;;;4.97;1.35;;;;;;;4.58;100.00;100502.41;4895371;29;20060;-83
2023/03/06 11:16:31;;;;;;;1.27;0.98;;;;;;;4.46;86.81;100505.16;4889810;29;20044;-83
2023/03/06 11:19:20;;;;;;;4.95;1.17;;;;;;;4.35;87.30;100504.03;4896913;29;20091;-83
2023/03/06 11:22:16;;;;;;;6.03;1.65;;;;;;;4.53;88.77;100494.31;4894394;29;20116;-83
2023/03/06 11:24:47;;;;;;;2.50;1.25;;;;;;;4.54;94.92;100492.38;4880983;29;20437;-82